createdAt,value
2018-12-11T00:00:02.116Z,1.90
2018-12-11T00:05:07.150Z,1.70
2018-12-11T00:10:11.830Z,1.40
2018-12-11T00:15:16.805Z,1.50
2018-12-11T00:20:21.424Z,1.30
2018-12-11T00:25:25.915Z,1.53
2018-12-11T00:30:31.509Z,1.77
2018-12-11T00:35:36.152Z,1.67
2018-12-11T00:40:40.359Z,1.27
2018-12-11T00:45:45.283Z,1.93
2018-12-11T00:50:50.735Z,2.00
2018-12-11T00:55:55.799Z,1.53
2018-12-11T01:06:25.745Z,1.50
2018-12-11T01:11:31.252Z,1.20
2018-12-11T01:16:36.423Z,1.23
2018-12-11T01:21:54.334Z,1.20
2018-12-11T01:26:59.072Z,1.63
2018-12-11T01:32:04.274Z,1.47
2018-12-11T01:37:08.784Z,1.33
2018-12-11T01:42:13.550Z,1.40
2018-12-11T01:47:17.769Z,1.30
2018-12-11T01:52:22.002Z,1.50
2018-12-11T01:57:26.164Z,1.40
2018-12-11T02:07:49.332Z,1.07
2018-12-11T02:12:59.899Z,1.10
2018-12-11T02:18:04.189Z,1.27
2018-12-11T02:23:09.212Z,1.97
2018-12-11T02:28:13.433Z,1.70
2018-12-11T02:33:18.716Z,0.93
2018-12-11T02:38:23.410Z,2.20
2018-12-11T02:43:29.583Z,1.47
2018-12-11T02:48:34.187Z,1.47
2018-12-11T02:53:38.844Z,2.30
2018-12-11T02:58:43.816Z,1.60
2018-12-11T03:03:48.837Z,1.50
2018-12-11T03:14:14.592Z,1.40
2018-12-11T03:19:19.577Z,1.20
2018-12-11T03:24:25.229Z,1.17
2018-12-11T03:34:52.569Z,2.33
2018-12-11T03:39:57.285Z,1.20
2018-12-11T03:45:04.001Z,1.20
2018-12-11T03:50:15.927Z,1.00
2018-12-11T04:00:47.922Z,1.67
2018-12-11T04:10:59.197Z,1.70
2018-12-11T04:16:05.193Z,1.23
2018-12-11T04:21:10.426Z,1.30
2018-12-11T04:31:39.796Z,1.47
2018-12-11T04:36:44.310Z,1.10
2018-12-11T04:41:49.252Z,1.20
2018-12-11T04:46:53.419Z,1.13
2018-12-11T04:51:58.162Z,1.10
2018-12-11T04:57:03.236Z,1.43
2018-12-11T05:02:07.468Z,1.30
2018-12-11T05:07:12.823Z,1.10
2018-12-11T05:17:37.309Z,0.90
2018-12-11T05:22:41.948Z,1.30
2018-12-11T05:27:46.559Z,1.60
2018-12-11T05:32:50.909Z,1.10
2018-12-11T05:37:56.112Z,1.07
2018-12-11T05:43:00.962Z,2.30
2018-12-11T05:48:06.948Z,1.83
2018-12-11T05:53:14.180Z,2.20
2018-12-11T06:03:47.561Z,0.90
2018-12-11T06:08:52.609Z,1.53
2018-12-11T06:13:57.277Z,1.40
2018-12-11T06:19:02.572Z,1.80
2018-12-11T06:24:08.135Z,1.00
2018-12-11T06:29:12.358Z,0.90
2018-12-11T06:34:18.517Z,0.80
2018-12-11T06:39:23.666Z,1.20
2018-12-11T06:44:27.838Z,0.77
2018-12-11T06:49:32.117Z,0.90
2018-12-11T06:54:37.891Z,1.27
2018-12-11T06:59:43.036Z,1.03
2018-12-11T07:04:48.189Z,1.10
2018-12-11T07:09:53.072Z,1.23
2018-12-11T07:14:57.594Z,1.20
2018-12-11T07:20:02.297Z,0.80
2018-12-11T07:25:07.003Z,0.90
2018-12-11T07:30:12.665Z,0.90
2018-12-11T07:40:43.686Z,0.87
2018-12-11T07:45:49.743Z,0.70
2018-12-11T07:50:53.984Z,0.97
2018-12-11T07:56:00.379Z,0.90
2018-12-11T08:01:05.410Z,1.00
2018-12-11T08:06:10.474Z,1.30
2018-12-11T08:11:15.054Z,1.10
2018-12-11T08:16:20.877Z,1.03
2018-12-11T08:21:26.393Z,1.30
2018-12-11T08:26:30.962Z,0.90
2018-12-11T08:31:35.689Z,1.00
2018-12-11T08:36:40.222Z,1.00
2018-12-11T08:41:45.251Z,1.43
2018-12-11T08:52:11.185Z,0.97
2018-12-11T08:57:16.277Z,1.23
2018-12-11T09:02:22.743Z,0.90
2018-12-11T09:07:27.664Z,2.07
2018-12-11T09:12:33.221Z,1.13
2018-12-11T09:17:39.372Z,1.23
2018-12-11T09:22:44.309Z,1.30
2018-12-11T09:27:54.088Z,1.23
2018-12-11T09:32:58.641Z,1.27
2018-12-11T09:38:05.421Z,1.10
2018-12-11T09:43:10.482Z,1.40
2018-12-11T09:48:15.523Z,0.90
2018-12-11T09:53:21.622Z,1.30
2018-12-11T09:58:26.534Z,2.20
2018-12-11T10:03:32.404Z,1.00
2018-12-11T10:08:37.528Z,1.20
2018-12-11T10:13:42.948Z,1.20
2018-12-11T10:24:15.379Z,1.17
2018-12-11T10:29:19.909Z,2.60
2018-12-11T10:34:25.564Z,1.27
2018-12-11T10:39:31.657Z,1.00
2018-12-11T10:50:04.820Z,1.23
2018-12-11T10:55:10.079Z,1.50
2018-12-11T11:00:51.328Z,2.17
2018-12-11T11:05:55.557Z,2.30
2018-12-11T11:11:00.129Z,2.63
2018-12-11T11:16:04.430Z,1.63
2018-12-11T11:21:09.001Z,3.50
2018-12-11T11:26:13.291Z,1.40
2018-12-11T11:31:18.030Z,1.70
2018-12-11T11:36:22.406Z,1.10
2018-12-11T11:41:27.080Z,2.20
2018-12-11T11:46:31.304Z,1.60
2018-12-11T11:51:36.034Z,1.63
2018-12-11T11:56:40.677Z,1.87
2018-12-11T12:01:45.262Z,2.13
2018-12-11T12:06:50.291Z,2.10
2018-12-11T12:11:55.522Z,1.87
2018-12-11T12:22:23.508Z,1.83
2018-12-11T12:27:28.503Z,1.67
2018-12-11T12:32:34.210Z,2.13
2018-12-11T12:37:40.140Z,1.43
2018-12-11T12:42:47.370Z,1.70
2018-12-11T12:53:15.491Z,2.10
2018-12-11T12:58:22.051Z,1.43
2018-12-11T13:03:31.346Z,1.73
2018-12-11T13:08:36.489Z,1.50
2018-12-11T13:13:42.097Z,1.63
2018-12-11T13:18:47.380Z,1.17
2018-12-11T13:23:52.579Z,1.40
2018-12-11T13:28:59.242Z,1.75
2018-12-11T13:34:04.770Z,1.50
2018-12-11T13:39:11.705Z,2.67
2018-12-11T13:44:16.922Z,3.03
2018-12-11T13:49:22.097Z,1.70
2018-12-11T13:54:27.699Z,2.00
2018-12-11T14:04:55.190Z,2.03
2018-12-11T14:10:00.423Z,2.20
2018-12-11T14:15:06.365Z,2.83
2018-12-11T14:20:14.163Z,1.97
2018-12-11T14:25:19.894Z,1.30
2018-12-11T14:30:25.785Z,2.13
2018-12-11T14:40:58.999Z,1.97
2018-12-11T14:46:05.858Z,2.97
2018-12-11T14:51:10.612Z,1.83
2018-12-11T14:56:16.666Z,2.87
2018-12-11T15:01:21.534Z,2.33
2018-12-11T15:06:25.971Z,2.47
2018-12-11T15:11:30.595Z,2.33
2018-12-11T15:16:35.527Z,1.73
2018-12-11T15:21:40.036Z,2.20
2018-12-11T15:26:45.722Z,2.93
2018-12-11T15:31:50.282Z,3.13
2018-12-11T15:36:54.545Z,3.47
2018-12-11T15:41:59.985Z,2.77
2018-12-11T15:47:04.487Z,2.53
2018-12-11T15:52:10.015Z,2.17
2018-12-11T15:57:14.581Z,1.73
2018-12-11T16:02:19.540Z,2.47
2018-12-11T16:07:25.270Z,1.40
2018-12-11T16:12:28.749Z,1.57
2018-12-11T16:17:31.744Z,1.43
2018-12-11T16:22:34.826Z,1.43
2018-12-11T16:27:38.078Z,1.50
2018-12-11T16:32:41.243Z,2.47
2018-12-11T16:37:44.480Z,1.47
2018-12-11T16:42:47.443Z,1.53
2018-12-11T16:47:50.416Z,1.20
2018-12-11T16:52:53.384Z,1.53
2018-12-11T16:57:56.388Z,0.80
2018-12-11T17:02:59.420Z,1.10
2018-12-11T17:08:02.432Z,1.00
2018-12-11T17:13:05.459Z,1.20
2018-12-11T17:18:08.563Z,1.30
2018-12-11T17:23:11.531Z,1.93
2018-12-11T17:28:14.609Z,1.17
2018-12-11T17:33:17.681Z,0.70
2018-12-11T17:38:20.735Z,0.90
2018-12-11T17:43:23.824Z,1.00
2018-12-11T17:48:27.587Z,0.93
2018-12-11T17:53:30.886Z,0.80
2018-12-11T17:58:33.891Z,1.00
2018-12-11T18:03:36.878Z,0.90
2018-12-11T18:08:39.899Z,0.80
2018-12-11T18:13:42.877Z,0.70
2018-12-11T18:18:45.864Z,0.83
2018-12-11T18:23:49.009Z,1.10
2018-12-11T18:28:52.208Z,0.67
2018-12-11T18:33:55.336Z,0.87
2018-12-11T18:38:58.377Z,0.90
2018-12-11T18:44:01.384Z,1.30
2018-12-11T18:49:04.560Z,1.23
2018-12-11T18:54:07.885Z,0.90
2018-12-11T18:59:10.961Z,1.30
2018-12-11T19:04:14.055Z,1.47
2018-12-11T19:09:17.222Z,1.50
2018-12-11T19:14:20.442Z,1.97
2018-12-11T19:19:23.455Z,1.20
2018-12-11T19:24:58.739Z,1.23
2018-12-11T19:30:01.752Z,1.80
2018-12-11T19:35:05.361Z,2.00
2018-12-11T19:40:09.313Z,2.07
2018-12-11T19:45:12.512Z,2.10
2018-12-11T19:50:16.200Z,2.90
2018-12-11T19:55:19.293Z,1.97
2018-12-11T20:00:22.331Z,2.10
2018-12-11T20:05:25.317Z,1.90
2018-12-11T20:10:28.354Z,1.80
2018-12-11T20:15:31.347Z,1.37
2018-12-11T20:20:34.370Z,1.17
2018-12-11T20:30:59.587Z,1.93
2018-12-11T20:36:03.232Z,1.40
2018-12-11T20:41:07.084Z,1.30
2018-12-11T20:51:36.726Z,2.10
2018-12-11T20:56:39.729Z,1.87
2018-12-11T21:01:42.737Z,2.13
2018-12-11T21:06:45.697Z,1.87
2018-12-11T21:11:48.635Z,2.47
2018-12-11T21:16:51.608Z,2.40
2018-12-11T21:21:54.658Z,2.10
2018-12-11T21:26:57.665Z,2.20
2018-12-11T21:32:00.687Z,1.43
2018-12-11T21:37:03.760Z,1.73
2018-12-11T21:47:25.733Z,2.17
2018-12-11T21:52:29.319Z,2.00
2018-12-11T21:57:33.982Z,1.73
2018-12-11T22:08:03.344Z,2.77
2018-12-11T22:13:14.326Z,2.50
2018-12-11T22:18:23.200Z,2.80
2018-12-11T22:23:26.774Z,2.30
2018-12-11T22:28:30.026Z,2.60
2018-12-11T22:33:35.011Z,2.20
2018-12-11T22:44:00.726Z,2.30
2018-12-11T22:49:03.852Z,2.80
2018-12-11T22:54:07.185Z,3.30
2018-12-11T23:04:34.668Z,3.87
2018-12-11T23:09:37.657Z,2.90
2018-12-11T23:14:40.626Z,2.33
2018-12-11T23:19:43.603Z,2.90
2018-12-11T23:24:46.810Z,2.70
2018-12-11T23:29:49.786Z,3.27
2018-12-11T23:34:53.894Z,3.10
2018-12-11T23:50:43.835Z,2.90
2018-12-11T23:55:47.078Z,2.83
